sensor_id;sensor_type;location;lat;lon;timestamp;temperature;humidity
9847;DHT22;68671;50.084;8.794;2024-03-25T00:01:07;10.10;99.90
9847;DHT22;68671;50.084;8.794;2024-03-25T00:03:34;10.00;99.90
9847;DHT22;68671;50.084;8.794;2024-03-25T00:06:01;10.00;99.90
9847;DHT22;68671;50.084;8.794;2024-03-25T00:08:28;10.00;99.90
9847;DHT22;68671;50.084;8.794;2024-03-25T00:10:54;10.00;99.90
9847;DHT22;68671;50.084;8.794;2024-03-25T00:13:21;9.90;99.90
9847;DHT22;68671;50.084;8.794;2024-03-25T00:15:47;9.90;99.90
9847;DHT22;68671;50.084;8.794;2024-03-25T00:18:15;9.90;99.90
9847;DHT22;68671;50.084;8.794;2024-03-25T00:20:41;9.90;99.90
9847;DHT22;68671;50.084;8.794;2024-03-25T00:23:11;9.80;99.90
9847;DHT22;68671;50.084;8.794;2024-03-25T00:25:37;9.90;99.90
9847;DHT22;68671;50.084;8.794;2024-03-25T00:28:05;9.90;99.90
9847;DHT22;68671;50.084;8.794;2024-03-25T00:30:31;9.90;99.90
9847;DHT22;68671;50.084;8.794;2024-03-25T00:32:58;9.80;99.90
9847;DHT22;68671;50.084;8.794;2024-03-25T00:35:24;9.90;99.90
9847;DHT22;68671;50.084;8.794;2024-03-25T00:37:51;9.90;99.90
9847;DHT22;68671;50.084;8.794;2024-03-25T00:40:18;9.90;99.90
9847;DHT22;68671;50.084;8.794;2024-03-25T00:42:45;9.90;99.90
9847;DHT22;68671;50.084;8.794;2024-03-25T00:45:14;9.80;99.90
9847;DHT22;68671;50.084;8.794;2024-03-25T00:47:44;9.80;99.90
9847;DHT22;68671;50.084;8.794;2024-03-25T00:50:10;9.70;99.90
9847;DHT22;68671;50.084;8.794;2024-03-25T00:52:36;9.70;99.90
9847;DHT22;68671;50.084;8.794;2024-03-25T00:55:03;9.70;99.90
9847;DHT22;68671;50.084;8.794;2024-03-25T00:57:31;9.60;99.90
9847;DHT22;68671;50.084;8.794;2024-03-25T01:00:00;9.60;99.90
9847;DHT22;68671;50.084;8.794;2024-03-25T01:02:28;9.50;99.90
9847;DHT22;68671;50.084;8.794;2024-03-25T01:04:54;9.50;99.90
9847;DHT22;68671;50.084;8.794;2024-03-25T01:07:22;9.50;99.90
9847;DHT22;68671;50.084;8.794;2024-03-25T01:09:48;9.50;99.90
9847;DHT22;68671;50.084;8.794;2024-03-25T01:12:18;9.40;99.90
9847;DHT22;68671;50.084;8.794;2024-03-25T01:14:48;9.40;99.90
9847;DHT22;68671;50.084;8.794;2024-03-25T01:17:15;9.40;99.90
9847;DHT22;68671;50.084;8.794;2024-03-25T01:19:42;9.50;99.90
9847;DHT22;68671;50.084;8.794;2024-03-25T01:22:08;9.40;99.90
9847;DHT22;68671;50.084;8.794;2024-03-25T01:24:37;9.40;99.90
9847;DHT22;68671;50.084;8.794;2024-03-25T01:27:04;9.40;99.90
9847;DHT22;68671;50.084;8.794;2024-03-25T01:29:31;9.40;99.90
9847;DHT22;68671;50.084;8.794;2024-03-25T01:31:58;9.40;99.90
9847;DHT22;68671;50.084;8.794;2024-03-25T01:34:25;9.40;99.90
9847;DHT22;68671;50.084;8.794;2024-03-25T01:36:51;9.40;99.90
9847;DHT22;68671;50.084;8.794;2024-03-25T01:39:18;9.50;99.90
9847;DHT22;68671;50.084;8.794;2024-03-25T01:41:44;9.50;99.90
9847;DHT22;68671;50.084;8.794;2024-03-25T01:44:11;9.50;99.90
9847;DHT22;68671;50.084;8.794;2024-03-25T01:46:37;9.50;99.90
9847;DHT22;68671;50.084;8.794;2024-03-25T01:49:06;9.50;99.90
9847;DHT22;68671;50.084;8.794;2024-03-25T01:51:33;9.50;99.90
9847;DHT22;68671;50.084;8.794;2024-03-25T01:54:02;9.40;99.90
9847;DHT22;68671;50.084;8.794;2024-03-25T01:56:30;9.40;99.90
9847;DHT22;68671;50.084;8.794;2024-03-25T01:58:58;9.40;99.90
9847;DHT22;68671;50.084;8.794;2024-03-25T02:01:24;9.30;99.90
9847;DHT22;68671;50.084;8.794;2024-03-25T02:03:53;9.30;99.90
9847;DHT22;68671;50.084;8.794;2024-03-25T02:06:21;9.20;99.90
9847;DHT22;68671;50.084;8.794;2024-03-25T02:08:49;9.20;99.90
9847;DHT22;68671;50.084;8.794;2024-03-25T02:11:17;9.20;99.90
9847;DHT22;68671;50.084;8.794;2024-03-25T02:13:45;9.20;99.90
9847;DHT22;68671;50.084;8.794;2024-03-25T02:16:11;9.10;99.90
9847;DHT22;68671;50.084;8.794;2024-03-25T02:18:40;9.10;99.90
9847;DHT22;68671;50.084;8.794;2024-03-25T02:21:06;9.00;99.90
9847;DHT22;68671;50.084;8.794;2024-03-25T02:23:35;9.00;99.90
9847;DHT22;68671;50.084;8.794;2024-03-25T02:26:05;9.00;99.90
9847;DHT22;68671;50.084;8.794;2024-03-25T02:28:33;8.90;99.90
9847;DHT22;68671;50.084;8.794;2024-03-25T02:30:59;8.90;99.90
9847;DHT22;68671;50.084;8.794;2024-03-25T02:33:25;8.90;99.90
9847;DHT22;68671;50.084;8.794;2024-03-25T02:35:51;8.80;99.90
9847;DHT22;68671;50.084;8.794;2024-03-25T02:38:19;8.80;99.90
9847;DHT22;68671;50.084;8.794;2024-03-25T02:40:48;8.80;99.90
9847;DHT22;68671;50.084;8.794;2024-03-25T02:43:18;8.80;99.90
9847;DHT22;68671;50.084;8.794;2024-03-25T02:45:46;8.80;99.90
9847;DHT22;68671;50.084;8.794;2024-03-25T02:48:15;8.70;99.90
9847;DHT22;68671;50.084;8.794;2024-03-25T02:50:41;8.80;99.90
9847;DHT22;68671;50.084;8.794;2024-03-25T02:53:08;8.70;99.90
9847;DHT22;68671;50.084;8.794;2024-03-25T02:55:34;8.70;99.90
9847;DHT22;68671;50.084;8.794;2024-03-25T02:58:04;8.70;99.90
9847;DHT22;68671;50.084;8.794;2024-03-25T03:00:34;8.70;99.90
9847;DHT22;68671;50.084;8.794;2024-03-25T03:03:01;8.70;99.90
9847;DHT22;68671;50.084;8.794;2024-03-25T03:05:27;8.70;99.90
9847;DHT22;68671;50.084;8.794;2024-03-25T03:07:54;8.70;99.90
9847;DHT22;68671;50.084;8.794;2024-03-25T03:10:20;8.70;99.90
9847;DHT22;68671;50.084;8.794;2024-03-25T03:12:46;8.70;99.90
9847;DHT22;68671;50.084;8.794;2024-03-25T03:15:13;8.70;99.90
9847;DHT22;68671;50.084;8.794;2024-03-25T03:17:42;8.70;99.90
9847;DHT22;68671;50.084;8.794;2024-03-25T03:20:09;8.70;99.90
9847;DHT22;68671;50.084;8.794;2024-03-25T03:22:36;8.70;99.90
9847;DHT22;68671;50.084;8.794;2024-03-25T03:25:03;8.70;99.90
9847;DHT22;68671;50.084;8.794;2024-03-25T03:27:30;8.70;99.90
9847;DHT22;68671;50.084;8.794;2024-03-25T03:29:56;8.60;99.90
9847;DHT22;68671;50.084;8.794;2024-03-25T03:32:23;8.60;99.90
9847;DHT22;68671;50.084;8.794;2024-03-25T03:34:51;8.60;99.90
9847;DHT22;68671;50.084;8.794;2024-03-25T03:37:18;8.60;99.90
9847;DHT22;68671;50.084;8.794;2024-03-25T03:39:44;8.50;99.90
9847;DHT22;68671;50.084;8.794;2024-03-25T03:42:10;8.50;99.90
9847;DHT22;68671;50.084;8.794;2024-03-25T03:44:36;8.60;99.90
9847;DHT22;68671;50.084;8.794;2024-03-25T03:47:04;8.60;99.90
9847;DHT22;68671;50.084;8.794;2024-03-25T03:49:30;8.60;99.90
9847;DHT22;68671;50.084;8.794;2024-03-25T03:51:58;8.60;99.90
9847;DHT22;68671;50.084;8.794;2024-03-25T03:54:24;8.60;99.90
9847;DHT22;68671;50.084;8.794;2024-03-25T03:56:51;8.70;99.90
9847;DHT22;68671;50.084;8.794;2024-03-25T03:59:17;8.80;99.90
9847;DHT22;68671;50.084;8.794;2024-03-25T04:01:46;8.80;99.90
9847;DHT22;68671;50.084;8.794;2024-03-25T04:04:12;8.80;99.90
9847;DHT22;68671;50.084;8.794;2024-03-25T04:06:39;8.90;99.90
9847;DHT22;68671;50.084;8.794;2024-03-25T04:09:07;8.90;99.90
9847;DHT22;68671;50.084;8.794;2024-03-25T04:11:35;8.90;99.90
9847;DHT22;68671;50.084;8.794;2024-03-25T04:14:01;9.00;99.90
9847;DHT22;68671;50.084;8.794;2024-03-25T04:16:29;9.00;99.90
9847;DHT22;68671;50.084;8.794;2024-03-25T04:18:56;9.00;99.90
9847;DHT22;68671;50.084;8.794;2024-03-25T04:21:23;9.10;99.90
9847;DHT22;68671;50.084;8.794;2024-03-25T04:23:49;9.10;99.90
9847;DHT22;68671;50.084;8.794;2024-03-25T04:26:18;9.10;99.90
9847;DHT22;68671;50.084;8.794;2024-03-25T04:28:44;9.10;99.90
9847;DHT22;68671;50.084;8.794;2024-03-25T04:31:11;9.00;99.90
9847;DHT22;68671;50.084;8.794;2024-03-25T04:33:36;9.10;99.90
9847;DHT22;68671;50.084;8.794;2024-03-25T04:36:04;9.10;99.90
9847;DHT22;68671;50.084;8.794;2024-03-25T04:38:30;9.00;99.90
9847;DHT22;68671;50.084;8.794;2024-03-25T04:40:56;9.10;99.90
9847;DHT22;68671;50.084;8.794;2024-03-25T04:43:24;9.10;99.90
9847;DHT22;68671;50.084;8.794;2024-03-25T04:45:50;9.10;99.90
9847;DHT22;68671;50.084;8.794;2024-03-25T04:48:16;9.10;99.90
9847;DHT22;68671;50.084;8.794;2024-03-25T04:50:42;9.10;99.90
9847;DHT22;68671;50.084;8.794;2024-03-25T04:53:08;9.10;99.90
9847;DHT22;68671;50.084;8.794;2024-03-25T04:55:34;9.00;99.90
9847;DHT22;68671;50.084;8.794;2024-03-25T04:58:00;9.00;99.90
9847;DHT22;68671;50.084;8.794;2024-03-25T05:00:27;9.00;99.90
9847;DHT22;68671;50.084;8.794;2024-03-25T05:02:54;9.00;99.90
9847;DHT22;68671;50.084;8.794;2024-03-25T05:05:20;8.90;99.90
9847;DHT22;68671;50.084;8.794;2024-03-25T05:07:46;8.90;99.90
9847;DHT22;68671;50.084;8.794;2024-03-25T05:10:12;8.90;99.90
9847;DHT22;68671;50.084;8.794;2024-03-25T05:12:38;8.80;99.90
9847;DHT22;68671;50.084;8.794;2024-03-25T05:15:05;8.80;99.90
9847;DHT22;68671;50.084;8.794;2024-03-25T05:17:33;8.80;99.90
9847;DHT22;68671;50.084;8.794;2024-03-25T05:19:59;8.80;99.90
9847;DHT22;68671;50.084;8.794;2024-03-25T05:22:25;8.80;99.90
9847;DHT22;68671;50.084;8.794;2024-03-25T05:24:51;8.70;99.90
9847;DHT22;68671;50.084;8.794;2024-03-25T05:27:17;8.70;99.90
9847;DHT22;68671;50.084;8.794;2024-03-25T05:29:43;8.70;99.90
9847;DHT22;68671;50.084;8.794;2024-03-25T05:32:09;8.70;99.90
9847;DHT22;68671;50.084;8.794;2024-03-25T05:34:37;8.70;99.90
9847;DHT22;68671;50.084;8.794;2024-03-25T05:37:03;8.70;99.90
9847;DHT22;68671;50.084;8.794;2024-03-25T05:39:29;8.60;99.90
9847;DHT22;68671;50.084;8.794;2024-03-25T05:41:55;8.60;99.90
9847;DHT22;68671;50.084;8.794;2024-03-25T05:44:21;8.60;99.90
9847;DHT22;68671;50.084;8.794;2024-03-25T05:46:47;8.60;99.90
9847;DHT22;68671;50.084;8.794;2024-03-25T05:49:13;8.60;99.90
9847;DHT22;68671;50.084;8.794;2024-03-25T05:51:41;8.60;99.90
9847;DHT22;68671;50.084;8.794;2024-03-25T05:54:07;8.70;99.90
9847;DHT22;68671;50.084;8.794;2024-03-25T05:56:33;8.80;99.90
9847;DHT22;68671;50.084;8.794;2024-03-25T05:59:00;8.80;99.90
9847;DHT22;68671;50.084;8.794;2024-03-25T06:01:26;9.00;99.90
9847;DHT22;68671;50.084;8.794;2024-03-25T06:03:52;9.20;99.90
9847;DHT22;68671;50.084;8.794;2024-03-25T06:06:18;9.30;99.90
9847;DHT22;68671;50.084;8.794;2024-03-25T06:08:46;9.60;99.90
9847;DHT22;68671;50.084;8.794;2024-03-25T06:11:16;9.80;99.90
9847;DHT22;68671;50.084;8.794;2024-03-25T06:13:42;10.00;99.90
9847;DHT22;68671;50.084;8.794;2024-03-25T06:16:11;10.30;99.90
9847;DHT22;68671;50.084;8.794;2024-03-25T06:18:37;10.60;99.90
9847;DHT22;68671;50.084;8.794;2024-03-25T06:21:03;10.80;99.90
9847;DHT22;68671;50.084;8.794;2024-03-25T06:23:29;11.10;99.90
9847;DHT22;68671;50.084;8.794;2024-03-25T06:25:57;11.40;99.90
9847;DHT22;68671;50.084;8.794;2024-03-25T06:28:23;11.60;99.90
9847;DHT22;68671;50.084;8.794;2024-03-25T06:30:50;11.90;99.90
9847;DHT22;68671;50.084;8.794;2024-03-25T06:33:35;12.10;99.90
9847;DHT22;68671;50.084;8.794;2024-03-25T06:36:22;12.50;99.90
9847;DHT22;68671;50.084;8.794;2024-03-25T06:38:49;12.90;99.90
9847;DHT22;68671;50.084;8.794;2024-03-25T06:41:16;13.30;99.90
9847;DHT22;68671;50.084;8.794;2024-03-25T06:43:43;13.60;99.90
9847;DHT22;68671;50.084;8.794;2024-03-25T06:46:09;13.80;99.90
9847;DHT22;68671;50.084;8.794;2024-03-25T06:48:37;14.00;99.90
9847;DHT22;68671;50.084;8.794;2024-03-25T06:51:03;14.30;99.90
9847;DHT22;68671;50.084;8.794;2024-03-25T06:53:29;14.60;99.90
9847;DHT22;68671;50.084;8.794;2024-03-25T06:55:56;15.00;99.90
9847;DHT22;68671;50.084;8.794;2024-03-25T06:58:31;15.30;99.90
9847;DHT22;68671;50.084;8.794;2024-03-25T07:01:03;15.60;99.90
9847;DHT22;68671;50.084;8.794;2024-03-25T07:03:29;15.90;99.90
9847;DHT22;68671;50.084;8.794;2024-03-25T07:05:55;16.20;99.90
9847;DHT22;68671;50.084;8.794;2024-03-25T07:08:21;16.50;99.90
9847;DHT22;68671;50.084;8.794;2024-03-25T07:10:47;16.80;99.90
9847;DHT22;68671;50.084;8.794;2024-03-25T07:13:13;17.10;99.90
9847;DHT22;68671;50.084;8.794;2024-03-25T07:15:42;17.40;99.90
9847;DHT22;68671;50.084;8.794;2024-03-25T07:18:09;17.70;99.90
9847;DHT22;68671;50.084;8.794;2024-03-25T07:20:38;17.80;99.90
9847;DHT22;68671;50.084;8.794;2024-03-25T07:23:04;18.00;99.90
9847;DHT22;68671;50.084;8.794;2024-03-25T07:25:30;18.10;99.90
9847;DHT22;68671;50.084;8.794;2024-03-25T07:27:58;18.40;99.90
9847;DHT22;68671;50.084;8.794;2024-03-25T07:30:25;18.60;99.90
9847;DHT22;68671;50.084;8.794;2024-03-25T07:32:52;18.80;99.90
9847;DHT22;68671;50.084;8.794;2024-03-25T07:35:18;19.00;99.90
9847;DHT22;68671;50.084;8.794;2024-03-25T07:37:44;19.20;99.90
9847;DHT22;68671;50.084;8.794;2024-03-25T07:40:11;19.50;99.90
9847;DHT22;68671;50.084;8.794;2024-03-25T07:42:37;19.60;99.00
9847;DHT22;68671;50.084;8.794;2024-03-25T07:45:04;19.70;97.10
9847;DHT22;68671;50.084;8.794;2024-03-25T07:47:33;19.60;95.60
9847;DHT22;68671;50.084;8.794;2024-03-25T07:50:00;19.40;94.40
9847;DHT22;68671;50.084;8.794;2024-03-25T07:52:26;19.10;94.60
9847;DHT22;68671;50.084;8.794;2024-03-25T07:54:53;18.80;94.30
9847;DHT22;68671;50.084;8.794;2024-03-25T07:57:19;18.60;94.00
9847;DHT22;68671;50.084;8.794;2024-03-25T07:59:45;18.30;94.60
9847;DHT22;68671;50.084;8.794;2024-03-25T08:02:11;18.10;94.50
9847;DHT22;68671;50.084;8.794;2024-03-25T08:04:37;17.90;93.90
9847;DHT22;68671;50.084;8.794;2024-03-25T08:07:04;17.60;93.50
9847;DHT22;68671;50.084;8.794;2024-03-25T08:09:30;17.30;93.20
9847;DHT22;68671;50.084;8.794;2024-03-25T08:11:57;17.00;93.30
9847;DHT22;68671;50.084;8.794;2024-03-25T08:14:23;16.70;93.50
9847;DHT22;68671;50.084;8.794;2024-03-25T08:16:49;16.40;93.70
9847;DHT22;68671;50.084;8.794;2024-03-25T08:19:15;16.20;94.00
9847;DHT22;68671;50.084;8.794;2024-03-25T08:21:41;15.90;94.30
9847;DHT22;68671;50.084;8.794;2024-03-25T08:24:09;15.70;95.00
9847;DHT22;68671;50.084;8.794;2024-03-25T08:26:35;15.50;95.00
9847;DHT22;68671;50.084;8.794;2024-03-25T08:29:01;15.40;95.30
9847;DHT22;68671;50.084;8.794;2024-03-25T08:31:27;15.20;95.70
9847;DHT22;68671;50.084;8.794;2024-03-25T08:33:53;15.00;95.50
9847;DHT22;68671;50.084;8.794;2024-03-25T08:36:19;14.90;95.80
9847;DHT22;68671;50.084;8.794;2024-03-25T08:38:45;14.80;96.40
9847;DHT22;68671;50.084;8.794;2024-03-25T08:41:12;14.70;96.40
9847;DHT22;68671;50.084;8.794;2024-03-25T08:43:38;14.60;96.60
9847;DHT22;68671;50.084;8.794;2024-03-25T08:46:04;14.50;96.70
9847;DHT22;68671;50.084;8.794;2024-03-25T08:48:30;14.40;96.70
9847;DHT22;68671;50.084;8.794;2024-03-25T08:50:56;14.40;97.00
9847;DHT22;68671;50.084;8.794;2024-03-25T08:53:22;14.40;96.50
9847;DHT22;68671;50.084;8.794;2024-03-25T08:55:48;14.50;96.20
9847;DHT22;68671;50.084;8.794;2024-03-25T08:58:16;14.50;95.10
9847;DHT22;68671;50.084;8.794;2024-03-25T09:00:43;14.50;95.00
9847;DHT22;68671;50.084;8.794;2024-03-25T09:03:09;14.50;94.20
9847;DHT22;68671;50.084;8.794;2024-03-25T09:05:35;14.60;94.10
9847;DHT22;68671;50.084;8.794;2024-03-25T09:08:01;14.60;94.00
9847;DHT22;68671;50.084;8.794;2024-03-25T09:10:27;14.60;94.30
9847;DHT22;68671;50.084;8.794;2024-03-25T09:13:12;14.70;94.60
9847;DHT22;68671;50.084;8.794;2024-03-25T09:15:40;14.90;94.70
9847;DHT22;68671;50.084;8.794;2024-03-25T09:18:07;15.00;94.40
9847;DHT22;68671;50.084;8.794;2024-03-25T09:20:33;15.10;94.10
9847;DHT22;68671;50.084;8.794;2024-03-25T09:23:00;15.20;93.40
9847;DHT22;68671;50.084;8.794;2024-03-25T09:25:25;15.40;93.20
9847;DHT22;68671;50.084;8.794;2024-03-25T09:27:51;15.50;93.00
9847;DHT22;68671;50.084;8.794;2024-03-25T09:30:18;15.50;92.50
9847;DHT22;68671;50.084;8.794;2024-03-25T09:32:48;15.50;92.60
9847;DHT22;68671;50.084;8.794;2024-03-25T09:35:16;15.60;92.20
9847;DHT22;68671;50.084;8.794;2024-03-25T09:37:42;15.60;91.80
9847;DHT22;68671;50.084;8.794;2024-03-25T09:40:09;15.60;91.40
9847;DHT22;68671;50.084;8.794;2024-03-25T09:42:42;15.50;91.30
9847;DHT22;68671;50.084;8.794;2024-03-25T09:45:11;15.50;91.20
9847;DHT22;68671;50.084;8.794;2024-03-25T09:47:39;15.50;91.00
9847;DHT22;68671;50.084;8.794;2024-03-25T09:50:08;15.50;91.00
9847;DHT22;68671;50.084;8.794;2024-03-25T09:52:36;15.50;91.00
9847;DHT22;68671;50.084;8.794;2024-03-25T09:55:02;15.40;91.00
9847;DHT22;68671;50.084;8.794;2024-03-25T09:57:28;15.40;90.80
9847;DHT22;68671;50.084;8.794;2024-03-25T09:59:55;15.40;91.00
9847;DHT22;68671;50.084;8.794;2024-03-25T10:02:21;15.40;91.10
9847;DHT22;68671;50.084;8.794;2024-03-25T10:04:48;15.40;91.00
9847;DHT22;68671;50.084;8.794;2024-03-25T10:07:21;15.40;90.90
9847;DHT22;68671;50.084;8.794;2024-03-25T10:09:47;15.40;91.10
9847;DHT22;68671;50.084;8.794;2024-03-25T10:12:13;15.40;90.90
9847;DHT22;68671;50.084;8.794;2024-03-25T10:14:40;15.50;91.10
9847;DHT22;68671;50.084;8.794;2024-03-25T10:17:06;15.50;91.60
9847;DHT22;68671;50.084;8.794;2024-03-25T10:19:32;15.50;91.00
9847;DHT22;68671;50.084;8.794;2024-03-25T10:22:06;15.50;90.90
9847;DHT22;68671;50.084;8.794;2024-03-25T10:24:41;15.50;90.80
9847;DHT22;68671;50.084;8.794;2024-03-25T10:27:10;15.60;90.90
9847;DHT22;68671;50.084;8.794;2024-03-25T10:29:37;15.60;90.70
9847;DHT22;68671;50.084;8.794;2024-03-25T10:32:03;15.70;90.50
9847;DHT22;68671;50.084;8.794;2024-03-25T10:34:30;15.70;90.20
9847;DHT22;68671;50.084;8.794;2024-03-25T10:36:57;15.70;89.90
9847;DHT22;68671;50.084;8.794;2024-03-25T10:39:27;15.80;90.00
9847;DHT22;68671;50.084;8.794;2024-03-25T10:41:58;15.80;90.00
9847;DHT22;68671;50.084;8.794;2024-03-25T10:44:26;15.80;90.10
9847;DHT22;68671;50.084;8.794;2024-03-25T10:47:05;15.80;89.90
9847;DHT22;68671;50.084;8.794;2024-03-25T10:49:34;15.80;89.10
9847;DHT22;68671;50.084;8.794;2024-03-25T10:52:03;15.80;88.50
9847;DHT22;68671;50.084;8.794;2024-03-25T10:54:31;15.80;86.50
9847;DHT22;68671;50.084;8.794;2024-03-25T10:57:01;15.70;85.50
9847;DHT22;68671;50.084;8.794;2024-03-25T10:59:29;15.70;85.30
9847;DHT22;68671;50.084;8.794;2024-03-25T11:01:56;15.70;85.10
9847;DHT22;68671;50.084;8.794;2024-03-25T11:04:22;15.70;85.20
9847;DHT22;68671;50.084;8.794;2024-03-25T11:06:49;15.80;88.20
9847;DHT22;68671;50.084;8.794;2024-03-25T11:09:24;15.80;88.70
9847;DHT22;68671;50.084;8.794;2024-03-25T11:11:51;15.90;89.10
9847;DHT22;68671;50.084;8.794;2024-03-25T11:14:19;15.90;88.70
9847;DHT22;68671;50.084;8.794;2024-03-25T11:16:51;16.00;88.50
9847;DHT22;68671;50.084;8.794;2024-03-25T11:19:18;16.00;88.40
9847;DHT22;68671;50.084;8.794;2024-03-25T11:21:44;16.20;88.70
9847;DHT22;68671;50.084;8.794;2024-03-25T11:24:10;16.30;87.70
9847;DHT22;68671;50.084;8.794;2024-03-25T11:26:40;16.30;86.90
9847;DHT22;68671;50.084;8.794;2024-03-25T11:29:07;16.40;85.20
9847;DHT22;68671;50.084;8.794;2024-03-25T11:31:34;16.30;83.80
9847;DHT22;68671;50.084;8.794;2024-03-25T11:34:04;16.10;83.00
9847;DHT22;68671;50.084;8.794;2024-03-25T11:36:30;15.80;83.40
9847;DHT22;68671;50.084;8.794;2024-03-25T11:39:01;15.80;84.10
9847;DHT22;68671;50.084;8.794;2024-03-25T11:41:32;15.70;83.00
9847;DHT22;68671;50.084;8.794;2024-03-25T11:43:58;15.60;82.70
9847;DHT22;68671;50.084;8.794;2024-03-25T11:46:28;15.70;83.30
9847;DHT22;68671;50.084;8.794;2024-03-25T11:48:56;15.80;83.50
9847;DHT22;68671;50.084;8.794;2024-03-25T11:51:22;15.90;83.30
9847;DHT22;68671;50.084;8.794;2024-03-25T11:53:48;15.90;83.10
9847;DHT22;68671;50.084;8.794;2024-03-25T11:56:14;16.00;83.60
9847;DHT22;68671;50.084;8.794;2024-03-25T11:58:40;16.10;84.10
9847;DHT22;68671;50.084;8.794;2024-03-25T12:01:08;16.10;83.90
9847;DHT22;68671;50.084;8.794;2024-03-25T12:03:34;16.10;83.60
9847;DHT22;68671;50.084;8.794;2024-03-25T12:06:02;16.10;83.60
9847;DHT22;68671;50.084;8.794;2024-03-25T12:08:28;16.10;83.50
9847;DHT22;68671;50.084;8.794;2024-03-25T12:10:54;16.10;82.60
9847;DHT22;68671;50.084;8.794;2024-03-25T12:13:38;16.20;82.30
9847;DHT22;68671;50.084;8.794;2024-03-25T12:16:05;16.10;81.40
9847;DHT22;68671;50.084;8.794;2024-03-25T12:18:32;16.10;81.50
9847;DHT22;68671;50.084;8.794;2024-03-25T12:20:58;16.20;82.00
9847;DHT22;68671;50.084;8.794;2024-03-25T12:23:29;16.20;81.00
9847;DHT22;68671;50.084;8.794;2024-03-25T12:25:55;16.20;80.20
9847;DHT22;68671;50.084;8.794;2024-03-25T12:28:22;16.10;79.10
9847;DHT22;68671;50.084;8.794;2024-03-25T12:30:53;16.10;78.50
9847;DHT22;68671;50.084;8.794;2024-03-25T12:33:19;16.10;78.20
9847;DHT22;68671;50.084;8.794;2024-03-25T12:35:46;16.10;77.50
9847;DHT22;68671;50.084;8.794;2024-03-25T12:38:26;16.00;78.20
9847;DHT22;68671;50.084;8.794;2024-03-25T12:40:53;16.10;79.00
9847;DHT22;68671;50.084;8.794;2024-03-25T12:43:20;16.20;78.80
9847;DHT22;68671;50.084;8.794;2024-03-25T12:45:49;16.30;78.90
9847;DHT22;68671;50.084;8.794;2024-03-25T12:48:15;16.40;78.10
9847;DHT22;68671;50.084;8.794;2024-03-25T12:50:41;16.50;77.80
9847;DHT22;68671;50.084;8.794;2024-03-25T12:53:07;16.50;77.20
9847;DHT22;68671;50.084;8.794;2024-03-25T12:55:34;16.50;75.80
9847;DHT22;68671;50.084;8.794;2024-03-25T12:58:00;16.50;75.30
9847;DHT22;68671;50.084;8.794;2024-03-25T13:00:26;16.40;74.50
9847;DHT22;68671;50.084;8.794;2024-03-25T13:02:52;16.20;73.10
9847;DHT22;68671;50.084;8.794;2024-03-25T13:05:18;16.10;72.90
9847;DHT22;68671;50.084;8.794;2024-03-25T13:07:44;16.00;73.20
9847;DHT22;68671;50.084;8.794;2024-03-25T13:10:10;16.10;74.00
9847;DHT22;68671;50.084;8.794;2024-03-25T13:12:38;16.10;74.50
9847;DHT22;68671;50.084;8.794;2024-03-25T13:15:04;16.10;75.50
9847;DHT22;68671;50.084;8.794;2024-03-25T13:17:30;16.20;74.50
9847;DHT22;68671;50.084;8.794;2024-03-25T13:19:56;16.20;73.70
9847;DHT22;68671;50.084;8.794;2024-03-25T13:22:22;16.00;73.60
9847;DHT22;68671;50.084;8.794;2024-03-25T13:24:48;15.80;73.40
9847;DHT22;68671;50.084;8.794;2024-03-25T13:27:15;15.50;72.20
9847;DHT22;68671;50.084;8.794;2024-03-25T13:29:42;15.30;71.90
9847;DHT22;68671;50.084;8.794;2024-03-25T13:32:08;15.20;72.20
9847;DHT22;68671;50.084;8.794;2024-03-25T13:34:34;15.20;72.90
9847;DHT22;68671;50.084;8.794;2024-03-25T13:37:00;15.10;72.70
9847;DHT22;68671;50.084;8.794;2024-03-25T13:39:26;14.90;72.20
9847;DHT22;68671;50.084;8.794;2024-03-25T13:41:57;14.80;72.20
9847;DHT22;68671;50.084;8.794;2024-03-25T13:44:23;14.60;72.20
9847;DHT22;68671;50.084;8.794;2024-03-25T13:46:50;14.40;73.10
9847;DHT22;68671;50.084;8.794;2024-03-25T13:49:16;14.40;72.80
9847;DHT22;68671;50.084;8.794;2024-03-25T13:51:42;14.40;72.90
9847;DHT22;68671;50.084;8.794;2024-03-25T13:54:11;14.40;73.20
9847;DHT22;68671;50.084;8.794;2024-03-25T13:56:37;14.40;73.40
9847;DHT22;68671;50.084;8.794;2024-03-25T13:59:03;14.30;73.60
9847;DHT22;68671;50.084;8.794;2024-03-25T14:01:29;14.10;73.60
9847;DHT22;68671;50.084;8.794;2024-03-25T14:03:57;14.10;73.70
9847;DHT22;68671;50.084;8.794;2024-03-25T14:06:23;14.00;73.40
9847;DHT22;68671;50.084;8.794;2024-03-25T14:08:49;14.00;73.40
9847;DHT22;68671;50.084;8.794;2024-03-25T14:11:15;14.00;73.20
9847;DHT22;68671;50.084;8.794;2024-03-25T14:13:41;14.00;73.20
9847;DHT22;68671;50.084;8.794;2024-03-25T14:16:07;14.10;73.80
9847;DHT22;68671;50.084;8.794;2024-03-25T14:18:33;14.30;73.50
9847;DHT22;68671;50.084;8.794;2024-03-25T14:21:00;14.40;72.80
9847;DHT22;68671;50.084;8.794;2024-03-25T14:23:26;14.40;72.00
9847;DHT22;68671;50.084;8.794;2024-03-25T14:25:53;14.50;72.10
9847;DHT22;68671;50.084;8.794;2024-03-25T14:28:19;14.50;72.00
9847;DHT22;68671;50.084;8.794;2024-03-25T14:30:45;14.50;72.20
9847;DHT22;68671;50.084;8.794;2024-03-25T14:33:11;14.40;71.90
9847;DHT22;68671;50.084;8.794;2024-03-25T14:35:37;14.30;71.90
9847;DHT22;68671;50.084;8.794;2024-03-25T14:38:04;14.20;72.30
9847;DHT22;68671;50.084;8.794;2024-03-25T14:40:31;14.20;72.00
9847;DHT22;68671;50.084;8.794;2024-03-25T14:42:58;14.30;72.30
9847;DHT22;68671;50.084;8.794;2024-03-25T14:45:24;14.30;72.10
9847;DHT22;68671;50.084;8.794;2024-03-25T14:47:50;14.40;71.60
9847;DHT22;68671;50.084;8.794;2024-03-25T14:50:16;14.50;71.50
9847;DHT22;68671;50.084;8.794;2024-03-25T14:52:42;14.50;71.10
9847;DHT22;68671;50.084;8.794;2024-03-25T14:55:10;14.50;70.70
9847;DHT22;68671;50.084;8.794;2024-03-25T14:57:36;14.50;70.20
9847;DHT22;68671;50.084;8.794;2024-03-25T15:00:03;14.40;70.00
9847;DHT22;68671;50.084;8.794;2024-03-25T15:02:29;14.40;69.80
9847;DHT22;68671;50.084;8.794;2024-03-25T15:04:55;14.40;69.70
9847;DHT22;68671;50.084;8.794;2024-03-25T15:07:21;14.50;70.00
9847;DHT22;68671;50.084;8.794;2024-03-25T15:09:47;14.60;70.20
9847;DHT22;68671;50.084;8.794;2024-03-25T15:12:14;14.60;70.60
9847;DHT22;68671;50.084;8.794;2024-03-25T15:14:40;14.60;70.60
9847;DHT22;68671;50.084;8.794;2024-03-25T15:17:07;14.50;70.70
9847;DHT22;68671;50.084;8.794;2024-03-25T15:19:33;14.40;70.40
9847;DHT22;68671;50.084;8.794;2024-03-25T15:21:59;14.30;70.70
9847;DHT22;68671;50.084;8.794;2024-03-25T15:24:25;14.20;71.00
9847;DHT22;68671;50.084;8.794;2024-03-25T15:26:51;14.10;71.30
9847;DHT22;68671;50.084;8.794;2024-03-25T15:29:18;14.10;71.60
9847;DHT22;68671;50.084;8.794;2024-03-25T15:31:44;14.00;71.10
9847;DHT22;68671;50.084;8.794;2024-03-25T15:34:10;13.90;70.80
9847;DHT22;68671;50.084;8.794;2024-03-25T15:36:36;13.90;71.10
9847;DHT22;68671;50.084;8.794;2024-03-25T15:39:03;13.80;71.20
9847;DHT22;68671;50.084;8.794;2024-03-25T15:41:29;13.90;71.60
9847;DHT22;68671;50.084;8.794;2024-03-25T15:43:55;13.80;71.50
9847;DHT22;68671;50.084;8.794;2024-03-25T15:46:22;13.90;71.40
9847;DHT22;68671;50.084;8.794;2024-03-25T15:48:48;13.90;71.40
9847;DHT22;68671;50.084;8.794;2024-03-25T15:51:14;13.90;71.10